This is the latest recevied weather packets stored in our database for station/object KI5MKI. If no packets are shown the sender has not sent any weather packets the latest 10 day(s).
| Time | Temp. | Humidity | Pressure | Rain* | Wind** | Luminosity | Snow |
|---|---|---|---|---|---|---|---|
| 1777834087 | 26.11° C | 44% | 1019.8 hPa | 0 mm | - | 946 W/m² | - |
| 1777833784 | 26.11° C | 41% | 1019.8 hPa | 0 mm | - | 962 W/m² | - |
| 1777833480 | 26.11° C | 48% | 1020.1 hPa | 0 mm | - | 221 W/m² | - |
| 1777833177 | 26.11° C | 43% | 1020.1 hPa | 0 mm | - | 946 W/m² | - |
| 1777832875 | 26.67° C | 44% | 1020.1 hPa | 0 mm | - | 944 W/m² | - |
| 1777832574 | 26.67° C | 40% | 1020.2 hPa | 0 mm | - | 940 W/m² | - |
| 1777832270 | 26.67° C | 43% | 1020.4 hPa | 0 mm | - | 946 W/m² | - |
| 1777831967 | 26.11° C | 46% | 1020.5 hPa | 0 mm | - | 946 W/m² | - |
| 1777831663 | 25.56° C | 43% | 1020.5 hPa | 0 mm | - | 946 W/m² | - |
| 1777831362 | 25.56° C | 42% | 1020.4 hPa | 0 mm | - | 941 W/m² | - |
| 1777831058 | 26.11° C | 43% | 1020.8 hPa | 0 mm | - | 937 W/m² | - |
| 1777830756 | 26.11° C | 47% | 1021 hPa | 0 mm | - | 935 W/m² | - |
| 1777830452 | 26.11° C | 44% | 1020.8 hPa | 0 mm | - | 937 W/m² | - |
| 1777830150 | 26.11° C | 47% | 1021.2 hPa | 0 mm | - | 935 W/m² | - |
| 1777829850 | 25.56° C | 48% | 1021 hPa | 0 mm | - | 931 W/m² | - |
| 1777829546 | 25.56° C | 47% | 1021.2 hPa | 0 mm | - | 924 W/m² | - |
| 1777829244 | 25.56° C | 43% | 1021.2 hPa | 0 mm | - | 920 W/m² | - |
| 1777828940 | 25.56° C | 46% | 1021.4 hPa | 0 mm | - | 917 W/m² | - |
| 1777828637 | 25.56° C | 44% | 1021.3 hPa | 0 mm | - | 910 W/m² | - |
| 1777828334 | 25.56° C | 45% | 1021.5 hPa | 0 mm | - | 902 W/m² | - |
| 1777828031 | 25° C | 45% | 1021.5 hPa | 0 mm | - | 896 W/m² | - |
| 1777827728 | 25° C | 46% | 1021.7 hPa | 0 mm | - | 888 W/m² | - |
| 1777827425 | 25° C | 48% | 1021.7 hPa | 0 mm | - | 877 W/m² | - |
| 1777827121 | 25° C | 46% | 1021.7 hPa | 0 mm | - | 866 W/m² | - |
| 1777826818 | 25° C | 48% | 1021.7 hPa | 0 mm | - | 856 W/m² | - |
* Rain latest hour (hover to see other rain measurements)
** Current wind speed in m/s (hover to see current wind gust speed)